createdAt,value
2019-05-10T00:01:21.130Z,100296.85
2019-05-10T00:04:10.038Z,100298.18
2019-05-10T00:06:58.990Z,100294.75
2019-05-10T00:09:30.184Z,100301.45
2019-05-10T00:12:08.569Z,100303.72
2019-05-10T00:14:46.669Z,100306.75
2019-05-10T00:17:19.649Z,100305.42
2019-05-10T00:19:50.751Z,100301.98
2019-05-10T00:22:22.127Z,100302.84
2019-05-10T00:25:04.029Z,100300.85
2019-05-10T00:27:27.210Z,100298.77
2019-05-10T00:29:58.389Z,100299.59
2019-05-10T00:32:29.415Z,100299.97
2019-05-10T00:35:00.411Z,100300.38
2019-05-10T00:37:31.427Z,100290.62
2019-05-10T00:40:02.385Z,100292.69
2019-05-10T00:42:34.465Z,100290.77
2019-05-10T00:45:07.318Z,100292.51
2019-05-10T00:47:38.321Z,100290.34
2019-05-10T00:50:09.349Z,100291.59
2019-05-10T00:52:41.450Z,100294.02
2019-05-10T00:55:19.141Z,100294.02
2019-05-10T00:57:44.995Z,100277.61
2019-05-10T01:00:15.985Z,100282.89
2019-05-10T01:02:46.962Z,100280.53
2019-05-10T01:05:18.366Z,100291.00
2019-05-10T01:07:49.595Z,100287.97
2019-05-10T01:10:20.696Z,100282.62
2019-05-10T01:12:51.718Z,100278.96
2019-05-10T01:15:22.752Z,100276.44
2019-05-10T01:17:53.743Z,100268.50
2019-05-10T01:20:24.801Z,100268.91
2019-05-10T01:22:56.144Z,100280.03
2019-05-10T01:25:35.354Z,100288.69
2019-05-10T01:27:59.957Z,100290.87
2019-05-10T01:30:31.063Z,100279.44
2019-05-10T01:33:02.047Z,100281.36
2019-05-10T01:35:33.164Z,100283.06
2019-05-10T01:38:04.176Z,100280.19
2019-05-10T01:40:35.336Z,100283.72
2019-05-10T01:43:06.256Z,100281.86
2019-05-10T01:45:37.410Z,100292.03
2019-05-10T01:48:08.594Z,100294.39
2019-05-10T01:50:39.665Z,100302.23
2019-05-10T01:53:10.745Z,100305.80
2019-05-10T01:55:51.482Z,100311.66
2019-05-10T01:58:14.640Z,100314.13
2019-05-10T02:00:45.702Z,100310.52
2019-05-10T02:03:16.815Z,100318.86
2019-05-10T02:05:48.093Z,100317.42
2019-05-10T02:08:19.465Z,100315.56
2019-05-10T02:10:50.623Z,100309.60
2019-05-10T02:13:21.713Z,100315.69
2019-05-10T02:15:52.887Z,100312.63
2019-05-10T02:18:23.971Z,100315.27
2019-05-10T02:20:55.071Z,100319.77
2019-05-10T02:23:26.293Z,100312.40
2019-05-10T02:26:09.007Z,100322.13
2019-05-10T02:28:30.189Z,100333.50
2019-05-10T02:31:01.286Z,100332.59
2019-05-10T02:33:32.398Z,100335.17
2019-05-10T02:36:03.767Z,100342.20
2019-05-10T02:38:34.781Z,100343.11
2019-05-10T02:41:05.912Z,100357.10
2019-05-10T02:43:37.095Z,100366.77
2019-05-10T02:46:08.311Z,100364.50
2019-05-10T02:48:39.473Z,100358.84
2019-05-10T02:51:10.653Z,100357.89
2019-05-10T02:53:41.845Z,100366.30
2019-05-10T02:56:29.647Z,100366.36
2019-05-10T02:58:46.670Z,100364.12
2019-05-10T03:01:18.253Z,100364.98
2019-05-10T03:03:49.422Z,100359.22
2019-05-10T03:06:20.650Z,100364.01
2019-05-10T03:08:53.120Z,100371.41
2019-05-10T03:11:25.421Z,100379.76
2019-05-10T03:13:56.572Z,100377.05
2019-05-10T03:16:27.760Z,100382.16
2019-05-10T03:18:58.813Z,100382.98
2019-05-10T03:21:30.510Z,100382.08
2019-05-10T03:24:01.664Z,100389.89
2019-05-10T03:26:49.565Z,100394.16
2019-05-10T03:29:05.669Z,100394.56
2019-05-10T03:31:36.879Z,100400.64
2019-05-10T03:34:07.945Z,100398.47
2019-05-10T03:36:39.011Z,100394.94
2019-05-10T03:39:10.155Z,100396.17
2019-05-10T03:41:41.188Z,100391.73
2019-05-10T03:44:12.326Z,100394.20
2019-05-10T03:46:43.432Z,100402.05
2019-05-10T03:49:14.627Z,100399.84
2019-05-10T03:51:45.621Z,100398.86
2019-05-10T03:54:16.786Z,100405.55
2019-05-10T03:56:47.889Z,100400.25
2019-05-10T03:59:20.040Z,100400.72
2019-05-10T04:01:51.236Z,100405.61
2019-05-10T04:04:22.506Z,100404.63
2019-05-10T04:06:53.489Z,100403.25
2019-05-10T04:09:24.768Z,100396.22
2019-05-10T04:11:55.872Z,100397.55
2019-05-10T04:14:26.960Z,100402.37
2019-05-10T04:16:58.017Z,100395.16
2019-05-10T04:19:29.255Z,100398.56
2019-05-10T04:22:00.436Z,100400.17
2019-05-10T04:24:35.947Z,100405.34
2019-05-10T04:27:04.425Z,100406.16
2019-05-10T04:29:35.526Z,100407.36
2019-05-10T04:32:06.718Z,100406.03
2019-05-10T04:34:37.799Z,100402.34
2019-05-10T04:37:08.852Z,100405.78
2019-05-10T04:39:39.919Z,100413.66
2019-05-10T04:42:11.043Z,100406.48
2019-05-10T04:44:42.225Z,100406.28
2019-05-10T04:47:13.405Z,100410.67
2019-05-10T04:49:44.578Z,100411.02
2019-05-10T04:52:15.653Z,100419.75
2019-05-10T04:54:46.743Z,100414.14
2019-05-10T04:57:17.724Z,100417.57
2019-05-10T04:59:48.870Z,100420.09
2019-05-10T05:02:22.179Z,100423.63
2019-05-10T05:04:53.832Z,100416.05
2019-05-10T05:07:25.056Z,100418.07
2019-05-10T05:09:56.443Z,100415.42
2019-05-10T05:12:27.646Z,100418.83
2019-05-10T05:14:58.948Z,100423.02
2019-05-10T05:17:30.062Z,100419.25
2019-05-10T05:20:01.292Z,100426.56
2019-05-10T05:22:32.434Z,100430.00
2019-05-10T05:25:04.909Z,100432.08
2019-05-10T05:27:36.162Z,100439.75
2019-05-10T05:30:07.570Z,100431.16
2019-05-10T05:32:44.304Z,100434.37
2019-05-10T05:35:15.412Z,100431.45
2019-05-10T05:37:46.066Z,100430.53
2019-05-10T05:40:17.163Z,100433.19
2019-05-10T05:42:48.219Z,100443.78
2019-05-10T05:45:20.345Z,100435.42
2019-05-10T05:47:51.444Z,100430.33
2019-05-10T05:50:22.656Z,100420.75
2019-05-10T05:52:54.035Z,100407.27
2019-05-10T05:55:30.577Z,100407.02
2019-05-10T05:58:04.526Z,100409.39
2019-05-10T06:00:37.608Z,100409.86
2019-05-10T06:03:05.135Z,100397.56
2019-05-10T06:05:37.253Z,100397.96
2019-05-10T06:08:21.441Z,100386.27
2019-05-10T06:10:43.877Z,100387.72
2019-05-10T06:13:14.396Z,100391.03
2019-05-10T06:15:45.501Z,100394.20
2019-05-10T06:18:16.708Z,100403.61
2019-05-10T06:20:47.985Z,100399.63
2019-05-10T06:23:19.263Z,100399.77
2019-05-10T06:25:50.384Z,100396.77
2019-05-10T06:28:26.834Z,100391.11
2019-05-10T06:30:54.198Z,100389.87
2019-05-10T06:33:25.317Z,100393.88
2019-05-10T06:35:56.460Z,100394.05
2019-05-10T06:38:27.619Z,100392.57
2019-05-10T06:40:59.645Z,100396.19
2019-05-10T06:43:30.815Z,100393.37
2019-05-10T06:46:01.973Z,100397.29
2019-05-10T06:48:33.805Z,100400.52
2019-05-10T06:51:09.780Z,100395.60
2019-05-10T06:53:42.301Z,100390.48
2019-05-10T06:56:10.614Z,100385.65
2019-05-10T06:58:41.679Z,100384.01
2019-05-10T07:01:12.823Z,100389.28
2019-05-10T07:03:43.817Z,100390.06
2019-05-10T07:06:14.846Z,100394.53
2019-05-10T07:08:46.105Z,100396.27
2019-05-10T07:11:17.499Z,100402.52
2019-05-10T07:13:52.793Z,100398.77
2019-05-10T07:16:24.411Z,100399.73
2019-05-10T07:18:54.991Z,100404.34
2019-05-10T07:21:27.009Z,100396.19
2019-05-10T07:23:58.071Z,100387.03
2019-05-10T07:26:29.054Z,100387.55
2019-05-10T07:29:00.243Z,100391.02
2019-05-10T07:31:31.387Z,100399.00
2019-05-10T07:34:02.566Z,100372.55
2019-05-10T07:36:33.644Z,100372.55
2019-05-10T07:39:08.385Z,100387.41
2019-05-10T07:41:40.801Z,100386.48
2019-05-10T07:44:14.971Z,100385.95
2019-05-10T07:46:49.728Z,100381.94
2019-05-10T07:49:23.791Z,100385.38
2019-05-10T07:51:52.169Z,100385.38
2019-05-10T07:54:23.427Z,100387.07
2019-05-10T07:56:54.811Z,100392.61
2019-05-10T07:59:30.404Z,100389.75
2019-05-10T08:02:05.783Z,100386.59
2019-05-10T08:04:33.692Z,100383.80
2019-05-10T08:07:07.554Z,100382.39
2019-05-10T08:09:44.726Z,100387.25
2019-05-10T08:12:14.920Z,100386.64
2019-05-10T08:14:51.901Z,100389.02
2019-05-10T08:17:25.917Z,100384.20
2019-05-10T08:19:56.945Z,100384.98
2019-05-10T08:22:32.822Z,100395.30
2019-05-10T08:25:02.370Z,100383.59
2019-05-10T08:27:34.679Z,100381.46
2019-05-10T08:30:24.361Z,100378.39
2019-05-10T08:32:39.504Z,100379.56
2019-05-10T08:35:16.221Z,100378.17
2019-05-10T08:37:43.581Z,100376.83
2019-05-10T08:40:19.709Z,100379.28
2019-05-10T08:42:54.643Z,100380.74
2019-05-10T08:45:22.665Z,100378.27
2019-05-10T08:48:00.745Z,100387.21
2019-05-10T08:50:44.228Z,100390.06
2019-05-10T08:53:02.330Z,100388.15
2019-05-10T08:55:32.472Z,100386.10
2019-05-10T08:58:03.604Z,100385.69
2019-05-10T09:00:49.422Z,100392.09
2019-05-10T09:03:09.736Z,100385.33
2019-05-10T09:05:43.128Z,100373.27
2019-05-10T09:08:19.495Z,100377.45
2019-05-10T09:10:46.144Z,100365.11
2019-05-10T09:13:18.411Z,100378.27
2019-05-10T09:15:56.064Z,100375.39
2019-05-10T09:18:23.027Z,100370.78
2019-05-10T09:21:00.359Z,100372.00
2019-05-10T09:23:27.011Z,100372.42
2019-05-10T09:26:03.590Z,100378.73
2019-05-10T09:28:32.198Z,100369.67
2019-05-10T09:31:17.169Z,100359.58
2019-05-10T09:33:43.373Z,100343.52
2019-05-10T09:36:09.233Z,100356.00
2019-05-10T09:38:43.384Z,100358.55
2019-05-10T09:41:13.022Z,100345.04
2019-05-10T09:43:48.652Z,100345.09
2019-05-10T09:46:17.107Z,100350.03
2019-05-10T09:48:48.190Z,100346.78
2019-05-10T09:51:27.962Z,100350.38
2019-05-10T09:53:52.097Z,100346.53
2019-05-10T09:56:23.260Z,100344.96
2019-05-10T09:58:54.227Z,100342.81
2019-05-10T10:01:25.399Z,100345.33
2019-05-10T10:03:58.367Z,100343.81
2019-05-10T10:06:29.937Z,100342.14
2019-05-10T10:09:01.377Z,100334.83
2019-05-10T10:11:32.984Z,100336.66
2019-05-10T10:14:07.621Z,100337.69
2019-05-10T10:16:38.068Z,100333.98
2019-05-10T10:19:09.156Z,100335.08
2019-05-10T10:21:40.169Z,100333.05
2019-05-10T10:24:15.681Z,100331.72
2019-05-10T10:26:44.237Z,100324.95
2019-05-10T10:29:17.296Z,100321.70
2019-05-10T10:31:55.247Z,100318.55
2019-05-10T10:34:21.191Z,100317.52
2019-05-10T10:36:52.304Z,100314.94
2019-05-10T10:39:24.437Z,100314.00
2019-05-10T10:41:57.159Z,100315.52
2019-05-10T10:44:28.540Z,100315.78
2019-05-10T10:46:59.735Z,100311.66
2019-05-10T10:49:32.113Z,100314.69
2019-05-10T10:52:05.791Z,100306.73
2019-05-10T10:54:39.206Z,100313.23
2019-05-10T10:57:08.956Z,100307.55
2019-05-10T10:59:40.040Z,100316.98
2019-05-10T11:04:46.542Z,100326.91
2019-05-10T11:07:16.952Z,100314.02
2019-05-10T11:09:48.088Z,100308.78
2019-05-10T11:12:21.064Z,100309.95
2019-05-10T11:14:52.098Z,100317.60
2019-05-10T11:17:23.151Z,100315.89
2019-05-10T11:19:54.190Z,100310.54
2019-05-10T11:22:27.377Z,100305.01
2019-05-10T11:25:01.327Z,100294.66
2019-05-10T11:27:31.863Z,100292.58
2019-05-10T11:30:02.952Z,100294.86
2019-05-10T11:32:34.042Z,100292.28
2019-05-10T11:35:05.983Z,100289.17
2019-05-10T11:37:37.077Z,100290.61
2019-05-10T11:40:11.283Z,100301.72
2019-05-10T11:42:43.679Z,100291.60
2019-05-10T11:45:15.172Z,100293.68
2019-05-10T11:47:47.996Z,100294.81
2019-05-10T11:50:28.724Z,100288.14
2019-05-10T11:52:51.700Z,100283.01
2019-05-10T11:55:22.850Z,100295.22
2019-05-10T11:58:02.897Z,100282.52
2019-05-10T12:00:33.614Z,100277.96
2019-05-10T12:03:07.728Z,100278.85
2019-05-10T12:05:34.160Z,100274.52
2019-05-10T12:08:05.169Z,100270.36
2019-05-10T12:10:43.055Z,100278.72
2019-05-10T12:13:18.561Z,100268.26
2019-05-10T12:15:42.845Z,100273.66
2019-05-10T12:21:00.397Z,100265.31
2019-05-10T12:23:30.213Z,100266.55
2019-05-10T12:26:50.305Z,100267.82
2019-05-10T12:26:59.104Z,100260.87
2019-05-10T12:28:29.007Z,100266.86
2019-05-10T12:31:07.596Z,100255.16
2019-05-10T12:33:42.895Z,100255.59
2019-05-10T12:36:22.344Z,100249.27
2019-05-10T12:38:45.108Z,100246.71
2019-05-10T12:41:16.212Z,100246.32
2019-05-10T12:43:51.476Z,100238.50
2019-05-10T12:46:24.224Z,100236.63
2019-05-10T12:49:08.358Z,100236.81
2019-05-10T12:51:40.935Z,100234.50
2019-05-10T12:54:12.371Z,100232.22
2019-05-10T12:56:45.942Z,100228.61
2019-05-10T12:59:16.333Z,100210.43
2019-05-10T13:01:47.441Z,100227.83
2019-05-10T13:04:18.571Z,100227.43
2019-05-10T13:06:49.632Z,100221.31
2019-05-10T13:09:35.974Z,100219.43
2019-05-10T13:12:03.129Z,100218.20
2019-05-10T13:14:29.116Z,100220.61
2019-05-10T13:17:03.750Z,100216.03
2019-05-10T13:19:32.041Z,100217.56
2019-05-10T13:22:06.945Z,100226.55
2019-05-10T13:24:36.639Z,100217.98
2019-05-10T13:27:07.713Z,100213.20
2019-05-10T13:29:40.724Z,100218.73
2019-05-10T13:32:14.772Z,100220.42
2019-05-10T13:34:44.751Z,100216.71
2019-05-10T13:37:23.130Z,100209.35
2019-05-10T13:39:48.470Z,100211.27
2019-05-10T13:42:20.478Z,100213.00
2019-05-10T13:44:51.547Z,100202.69
2019-05-10T13:47:22.671Z,100206.89
2019-05-10T13:49:53.853Z,100208.42
2019-05-10T13:52:30.039Z,100205.30
2019-05-10T13:54:58.152Z,100205.30
2019-05-10T13:57:29.319Z,100189.93
2019-05-10T14:00:02.412Z,100203.27
2019-05-10T14:02:34.922Z,100208.02
2019-05-10T14:05:11.967Z,100204.95
2019-05-10T14:07:39.885Z,100215.03
2019-05-10T14:10:11.224Z,100193.45
2019-05-10T14:12:42.337Z,100205.36
2019-05-10T14:15:20.716Z,100208.31
2019-05-10T14:17:56.141Z,100212.09
2019-05-10T14:20:27.716Z,100209.91
2019-05-10T14:23:01.055Z,100206.38
2019-05-10T14:25:36.429Z,100205.45
2019-05-10T14:28:09.800Z,100204.13
2019-05-10T14:30:38.309Z,100202.29
2019-05-10T14:33:14.828Z,100204.41
2019-05-10T14:35:42.111Z,100203.83
2019-05-10T14:38:13.879Z,100211.48
2019-05-10T14:40:47.318Z,100206.83
2019-05-10T14:43:18.681Z,100215.88
2019-05-10T14:45:58.301Z,100216.22
2019-05-10T14:48:35.440Z,100217.16
2019-05-10T14:51:11.009Z,100216.92
2019-05-10T14:53:38.887Z,100218.24
2019-05-10T14:56:14.008Z,100215.17
2019-05-10T14:58:44.151Z,100214.58
2019-05-10T15:01:15.531Z,100214.77
2019-05-10T15:03:47.736Z,100211.89
2019-05-10T15:06:19.194Z,100209.96
2019-05-10T15:08:50.415Z,100213.00
2019-05-10T15:11:26.457Z,100213.16
2019-05-10T15:13:54.706Z,100218.46
2019-05-10T15:16:30.347Z,100218.46
2019-05-10T15:18:58.588Z,100194.03
2019-05-10T15:21:30.151Z,100194.03
2019-05-10T15:24:03.046Z,100195.06
2019-05-10T15:26:43.192Z,100213.20
2019-05-10T15:29:07.276Z,100217.69
2019-05-10T15:31:38.456Z,100208.90
2019-05-10T15:34:09.582Z,100219.95
2019-05-10T15:36:40.633Z,100209.30
2019-05-10T15:39:11.693Z,100215.95
2019-05-10T15:41:42.880Z,100211.14
2019-05-10T15:44:14.056Z,100203.07
2019-05-10T15:46:45.244Z,100212.81
2019-05-10T15:49:21.097Z,100205.00
2019-05-10T15:51:55.247Z,100186.27
2019-05-10T15:54:21.785Z,100206.47
2019-05-10T15:56:55.372Z,100201.30
2019-05-10T15:59:26.671Z,100201.30
2019-05-10T16:01:57.819Z,100199.27
2019-05-10T16:04:28.951Z,100198.45
2019-05-10T16:07:00.175Z,100191.80
2019-05-10T16:09:31.165Z,100193.05
2019-05-10T16:12:08.034Z,100193.05
2019-05-10T16:14:39.276Z,100188.70
2019-05-10T16:17:10.384Z,100185.85
2019-05-10T16:19:42.165Z,100185.85
2019-05-10T16:22:13.365Z,100189.30
2019-05-10T16:24:44.542Z,100185.36
2019-05-10T16:27:15.485Z,100185.36
2019-05-10T16:29:46.687Z,100186.39
2019-05-10T16:32:17.785Z,100187.64
2019-05-10T16:34:49.103Z,100183.31
2019-05-10T16:37:20.427Z,100186.63
2019-05-10T16:39:51.610Z,100184.23
2019-05-10T16:42:27.920Z,100193.17
2019-05-10T16:44:55.717Z,100194.38
2019-05-10T16:47:26.736Z,100193.63
2019-05-10T16:49:57.814Z,100187.22
2019-05-10T16:52:28.895Z,100192.52
2019-05-10T16:55:03.460Z,100190.72
2019-05-10T16:57:37.441Z,100196.44
2019-05-10T17:00:10.383Z,100190.48
2019-05-10T17:02:41.936Z,100192.22
2019-05-10T17:05:15.335Z,100189.57
2019-05-10T17:07:45.855Z,100195.05
2019-05-10T17:10:17.158Z,100196.88
2019-05-10T17:12:48.228Z,100200.11
2019-05-10T17:15:19.364Z,100200.11
2019-05-10T17:17:50.432Z,100203.86
2019-05-10T17:20:21.536Z,100207.51
2019-05-10T17:22:52.593Z,100210.75
2019-05-10T17:25:23.565Z,100208.62
2019-05-10T17:27:57.411Z,100214.34
2019-05-10T17:30:28.269Z,100213.41
2019-05-10T17:33:03.909Z,100219.08
2019-05-10T17:35:36.606Z,100223.02
2019-05-10T17:38:07.847Z,100223.33
2019-05-10T17:40:42.310Z,100220.58
2019-05-10T17:43:14.367Z,100217.85
2019-05-10T17:45:44.487Z,100219.48
2019-05-10T17:48:15.462Z,100220.75
2019-05-10T17:50:47.028Z,100218.80
2019-05-10T17:53:18.180Z,100222.55
2019-05-10T17:55:55.625Z,100219.66
2019-05-10T17:58:27.677Z,100219.98
2019-05-10T18:00:56.172Z,100221.08
2019-05-10T18:03:27.219Z,100220.45
2019-05-10T18:05:58.450Z,100217.55
2019-05-10T18:08:29.635Z,100215.45
2019-05-10T18:11:03.991Z,100215.59
2019-05-10T18:13:35.616Z,100214.02
2019-05-10T18:16:09.476Z,100217.77
2019-05-10T18:18:46.302Z,100220.98
2019-05-10T18:21:16.140Z,100221.14
2019-05-10T18:23:46.156Z,100220.91
2019-05-10T18:26:17.396Z,100217.61
2019-05-10T18:28:48.819Z,100219.63
2019-05-10T18:31:20.045Z,100220.87
2019-05-10T18:33:54.544Z,100213.55
2019-05-10T18:36:26.724Z,100218.62
2019-05-10T18:38:57.039Z,100215.10
2019-05-10T18:41:28.273Z,100216.39
2019-05-10T18:43:59.496Z,100215.81
2019-05-10T18:46:30.574Z,100217.85
2019-05-10T18:49:01.715Z,100221.95
2019-05-10T18:51:34.615Z,100219.08
2019-05-10T18:54:05.937Z,100219.20
2019-05-10T18:56:37.100Z,100222.56
2019-05-10T18:59:09.255Z,100220.98
2019-05-10T19:01:40.830Z,100226.41
2019-05-10T19:04:15.599Z,100229.22
2019-05-10T19:06:50.024Z,100219.16
2019-05-10T19:09:18.719Z,100225.91
2019-05-10T19:11:50.046Z,100234.56
2019-05-10T19:14:23.820Z,100226.35
2019-05-10T19:16:55.442Z,100228.05
2019-05-10T19:19:26.654Z,100229.00
2019-05-10T19:22:02.959Z,100229.52
2019-05-10T19:24:32.233Z,100232.80
2019-05-10T19:27:07.591Z,100228.49
2019-05-10T19:29:45.536Z,100233.54
2019-05-10T19:32:18.194Z,100237.11
2019-05-10T19:34:48.376Z,100231.95
2019-05-10T19:37:28.860Z,100232.06
2019-05-10T19:39:49.789Z,100226.47
2019-05-10T19:42:21.045Z,100229.56
2019-05-10T19:44:52.096Z,100232.77
2019-05-10T19:47:23.185Z,100238.95
2019-05-10T19:49:54.237Z,100236.81
2019-05-10T19:52:27.867Z,100241.75
2019-05-10T19:54:59.171Z,100248.89
2019-05-10T19:57:30.330Z,100244.52
2019-05-10T20:00:01.689Z,100248.12
2019-05-10T20:02:32.843Z,100244.21
2019-05-10T20:05:05.359Z,100244.66
2019-05-10T20:07:45.498Z,100246.94
2019-05-10T20:10:09.313Z,100245.98
2019-05-10T20:12:40.603Z,100250.91
2019-05-10T20:15:11.703Z,100252.75
2019-05-10T20:17:42.866Z,100251.09
2019-05-10T20:20:14.077Z,100250.25
2019-05-10T20:22:45.663Z,100253.81
2019-05-10T20:25:16.789Z,100253.04
2019-05-10T20:27:48.107Z,100249.58
2019-05-10T20:30:19.316Z,100253.08
2019-05-10T20:32:50.408Z,100257.13
2019-05-10T20:35:22.711Z,100257.67
2019-05-10T20:38:02.117Z,100263.05
2019-05-10T20:40:26.665Z,100262.16
2019-05-10T20:42:57.900Z,100261.37
2019-05-10T20:45:28.971Z,100265.43
2019-05-10T20:48:00.315Z,100269.47
2019-05-10T20:50:31.536Z,100281.91
2019-05-10T20:53:02.745Z,100277.46
2019-05-10T20:55:33.949Z,100277.94
2019-05-10T20:58:05.545Z,100275.35
2019-05-10T21:00:36.849Z,100282.05
2019-05-10T21:03:07.952Z,100281.64
2019-05-10T21:05:39.210Z,100286.53
2019-05-10T21:08:16.912Z,100285.35
2019-05-10T21:10:43.329Z,100287.59
2019-05-10T21:13:14.499Z,100293.84
2019-05-10T21:15:45.537Z,100294.42
2019-05-10T21:18:16.693Z,100302.92
2019-05-10T21:20:47.638Z,100309.48
2019-05-10T21:23:18.744Z,100310.80
2019-05-10T21:25:49.855Z,100313.82
2019-05-10T21:28:21.060Z,100319.59
2019-05-10T21:30:53.595Z,100313.95
2019-05-10T21:33:24.920Z,100322.31
2019-05-10T21:35:56.115Z,100327.62
2019-05-10T21:38:33.095Z,100325.75
2019-05-10T21:41:00.023Z,100335.02
2019-05-10T21:43:31.225Z,100333.70
2019-05-10T21:46:02.376Z,100332.37
2019-05-10T21:48:33.663Z,100332.71
2019-05-10T21:51:04.704Z,100325.75
2019-05-10T21:53:35.757Z,100332.71
2019-05-10T21:56:06.839Z,100330.67
2019-05-10T21:58:37.816Z,100323.09
2019-05-10T22:01:08.829Z,100321.27
2019-05-10T22:03:40.051Z,100330.95
2019-05-10T22:06:11.121Z,100325.23
2019-05-10T22:08:49.571Z,100327.41
2019-05-10T22:11:14.853Z,100332.55
2019-05-10T22:13:45.855Z,100325.10
2019-05-10T22:16:16.883Z,100330.27
2019-05-10T22:18:49.542Z,100326.77
2019-05-10T22:21:20.573Z,100330.16
2019-05-10T22:23:51.746Z,100335.33
2019-05-10T22:26:22.696Z,100333.88
2019-05-10T22:28:53.805Z,100332.81
2019-05-10T22:31:24.960Z,100333.62
2019-05-10T22:33:55.938Z,100335.59
2019-05-10T22:36:27.310Z,100332.50
2019-05-10T22:39:07.109Z,100333.34
2019-05-10T22:41:31.139Z,100328.86
2019-05-10T22:44:02.451Z,100329.64
2019-05-10T22:46:33.454Z,100329.64
2019-05-10T22:49:04.614Z,100334.37
2019-05-10T22:51:35.533Z,100337.86
2019-05-10T22:54:06.564Z,100338.27
2019-05-10T22:56:37.579Z,100340.11
2019-05-10T22:59:09.140Z,100338.59
2019-05-10T23:01:40.185Z,100337.59
2019-05-10T23:04:11.242Z,100337.09
2019-05-10T23:06:42.175Z,100335.28
2019-05-10T23:09:24.017Z,100334.03
2019-05-10T23:11:47.079Z,100337.73
2019-05-10T23:14:18.131Z,100339.58
2019-05-10T23:16:49.131Z,100339.30
2019-05-10T23:19:20.310Z,100335.73
2019-05-10T23:21:51.387Z,100331.76
2019-05-10T23:24:24.229Z,100331.63
2019-05-10T23:26:55.373Z,100327.20
2019-05-10T23:29:26.449Z,100329.92
2019-05-10T23:31:58.833Z,100339.71
2019-05-10T23:34:29.958Z,100334.27
2019-05-10T23:37:00.964Z,100336.92
2019-05-10T23:39:40.252Z,100335.22
2019-05-10T23:42:04.868Z,100333.34
2019-05-10T23:44:35.919Z,100330.43
2019-05-10T23:47:06.992Z,100327.38
2019-05-10T23:49:38.036Z,100332.41
2019-05-10T23:52:09.248Z,100334.28
2019-05-10T23:54:40.369Z,100332.48
2019-05-10T23:57:11.446Z,100329.48
2019-05-10T23:59:42.511Z,100329.48
